createdAt,value
2022-11-14T00:04:36.617Z,1666
2022-11-14T00:09:55.110Z,1666
2022-11-14T00:15:13.464Z,1663
2022-11-14T00:20:31.940Z,1660
2022-11-14T00:25:49.886Z,1662
2022-11-14T00:31:08.224Z,1660
2022-11-14T00:36:26.740Z,1656
2022-11-14T00:41:44.959Z,1653
2022-11-14T00:47:03.560Z,1653
2022-11-14T00:52:21.746Z,1653
2022-11-14T00:57:40.262Z,1651
2022-11-14T01:02:58.355Z,1648
2022-11-14T01:08:16.875Z,1652
2022-11-14T01:13:35.049Z,1657
2022-11-14T01:18:38.309Z,1652
2022-11-14T01:23:56.628Z,1649
2022-11-14T01:29:15.420Z,1648
2022-11-14T01:34:34.312Z,1651
2022-11-14T01:39:53.090Z,1640
2022-11-14T01:45:11.582Z,1647
2022-11-14T01:50:29.871Z,1643
2022-11-14T01:55:47.947Z,1642
2022-11-14T02:01:06.820Z,1648
2022-11-14T02:06:25.462Z,1648
2022-11-14T02:11:43.613Z,1645
2022-11-14T02:17:27.711Z,1632
2022-11-14T02:22:49.011Z,1634
2022-11-14T02:28:07.774Z,1631
2022-11-14T02:33:26.250Z,1634
2022-11-14T02:38:44.825Z,1640
2022-11-14T02:44:03.275Z,1652
2022-11-14T02:49:22.046Z,1636
2022-11-14T02:54:40.957Z,1635
2022-11-14T02:59:59.767Z,1631
2022-11-14T03:05:18.564Z,1629
2022-11-14T03:10:37.408Z,1635
2022-11-14T03:15:55.896Z,1640
2022-11-14T03:21:14.395Z,1645
2022-11-14T03:26:32.757Z,1648
2022-11-14T03:31:50.932Z,1645
2022-11-14T03:37:09.400Z,1644
2022-11-14T03:42:28.022Z,1648
2022-11-14T03:47:46.475Z,1650
2022-11-14T03:53:04.980Z,1649
2022-11-14T03:58:23.861Z,1641
2022-11-14T04:03:42.315Z,1626
2022-11-14T04:09:00.232Z,1636
2022-11-14T04:14:19.122Z,1626
2022-11-14T04:19:37.879Z,1623
2022-11-14T04:24:56.365Z,1612
2022-11-14T04:30:14.712Z,1616
2022-11-14T04:35:33.180Z,1619
2022-11-14T04:40:51.953Z,1622
2022-11-14T04:46:10.294Z,1624
2022-11-14T04:51:28.831Z,1616
2022-11-14T04:56:47.348Z,1610
2022-11-14T05:02:05.572Z,1613
2022-11-14T05:07:24.359Z,1608
2022-11-14T05:12:42.904Z,1612
2022-11-14T05:18:01.416Z,1611
2022-11-14T05:23:19.335Z,1607
2022-11-14T05:28:37.527Z,1608
2022-11-14T05:33:56.092Z,1622
2022-11-14T05:39:14.567Z,1630
2022-11-14T05:44:32.748Z,1643
2022-11-14T05:49:50.983Z,1641
2022-11-14T05:55:08.937Z,1676
2022-11-14T06:00:27.668Z,1668
2022-11-14T06:05:46.191Z,1674
2022-11-14T06:11:04.368Z,1711
2022-11-14T06:16:22.571Z,1688
2022-11-14T06:21:41.091Z,1665
2022-11-14T06:26:59.392Z,1662
2022-11-14T06:32:18.175Z,1672
2022-11-14T06:37:36.432Z,1659
2022-11-14T06:42:54.939Z,1715
2022-11-14T06:48:13.405Z,1736
2022-11-14T06:53:31.624Z,1697
2022-11-14T06:58:49.822Z,1643
2022-11-14T07:04:08.580Z,1617
2022-11-14T07:09:27.100Z,1606
2022-11-14T07:14:45.874Z,1599
2022-11-14T07:20:04.638Z,1593
2022-11-14T07:25:23.411Z,1605
2022-11-14T07:30:41.710Z,1628
2022-11-14T07:36:00.106Z,1054
2022-11-14T07:41:18.848Z,1381
2022-11-14T07:46:37.602Z,1467
2022-11-14T07:51:56.108Z,1515
2022-11-14T07:57:14.615Z,1521
2022-11-14T08:02:32.824Z,1524
2022-11-14T08:07:51.297Z,1511
2022-11-14T08:13:30.803Z,1507
2022-11-14T08:18:51.474Z,1503
2022-11-14T08:24:10.254Z,1490
2022-11-14T08:29:28.199Z,1491
2022-11-14T08:34:46.406Z,1487
2022-11-14T08:40:04.877Z,1478
2022-11-14T08:45:23.665Z,1483
2022-11-14T08:50:42.143Z,1486
2022-11-14T08:56:00.619Z,1481
2022-11-14T09:01:19.432Z,1475
2022-11-14T09:06:37.780Z,1473
2022-11-14T09:11:56.241Z,1467
2022-11-14T09:17:14.195Z,1459
2022-11-14T09:22:32.397Z,1465
2022-11-14T09:27:50.879Z,1461
2022-11-14T09:33:11.817Z,1451
2022-11-14T09:38:34.068Z,1445
2022-11-14T09:43:57.065Z,1438
2022-11-14T09:49:15.578Z,1436
2022-11-14T09:54:34.036Z,1425
2022-11-14T09:59:52.295Z,1421
2022-11-14T10:05:11.051Z,1423
2022-11-14T10:10:29.603Z,1422
2022-11-14T10:15:56.788Z,1411
2022-11-14T10:21:15.302Z,1396
2022-11-14T10:26:33.802Z,1384
2022-11-14T10:31:52.573Z,1386
2022-11-14T10:37:10.806Z,1406
2022-11-14T10:42:13.917Z,1412
2022-11-14T10:47:32.439Z,1415
2022-11-14T10:52:50.906Z,1417
2022-11-14T10:58:09.369Z,1421
2022-11-14T11:03:27.877Z,1407
2022-11-14T11:08:46.816Z,1418
2022-11-14T11:14:06.004Z,1364
2022-11-14T11:19:24.487Z,1371
2022-11-14T11:24:42.720Z,1379
2022-11-14T11:30:01.177Z,1384
2022-11-14T11:35:19.429Z,1396
2022-11-14T11:40:37.615Z,1421
2022-11-14T11:45:55.811Z,1468
2022-11-14T11:51:14.605Z,1472
2022-11-14T11:56:33.079Z,1481
2022-11-14T12:01:51.620Z,1493
2022-11-14T12:07:10.394Z,1504
2022-11-14T12:12:29.082Z,1504
2022-11-14T12:17:47.858Z,1499
2022-11-14T12:23:06.587Z,1497
2022-11-14T12:28:25.099Z,1496
2022-11-14T12:33:43.318Z,1482
2022-11-14T12:39:02.085Z,1483
2022-11-14T12:44:20.760Z,1479
2022-11-14T12:49:39.057Z,1471
2022-11-14T12:54:57.821Z,1465
2022-11-14T13:00:16.070Z,1471
2022-11-14T13:05:34.607Z,1460
2022-11-14T13:10:52.790Z,1460
2022-11-14T13:16:11.571Z,1455
2022-11-14T13:21:29.783Z,1460
2022-11-14T13:26:32.656Z,1456
2022-11-14T13:31:51.448Z,1467
2022-11-14T13:37:10.299Z,1460
2022-11-14T13:42:28.756Z,1458
2022-11-14T13:47:47.049Z,1451
2022-11-14T13:53:05.504Z,1445
2022-11-14T13:58:23.984Z,1442
2022-11-14T14:03:42.213Z,1471
2022-11-14T14:09:00.434Z,1465
2022-11-14T14:14:18.915Z,1477
2022-11-14T14:19:36.847Z,1473
2022-11-14T14:24:55.029Z,1454
2022-11-14T14:30:13.829Z,1434
2022-11-14T14:35:35.784Z,1420
2022-11-14T14:40:58.871Z,1400
2022-11-14T14:46:17.638Z,1390
2022-11-14T14:51:35.852Z,1376
2022-11-14T14:56:54.047Z,1373
2022-11-14T15:02:12.522Z,1354
2022-11-14T15:07:31.108Z,1354
2022-11-14T15:12:49.519Z,1369
2022-11-14T15:18:07.441Z,1394
2022-11-14T15:23:26.249Z,1413
2022-11-14T15:28:44.737Z,1411
2022-11-14T15:34:03.477Z,1422
2022-11-14T15:39:22.001Z,1424
2022-11-14T15:44:40.931Z,1408
2022-11-14T15:49:59.114Z,1401
2022-11-14T15:55:17.903Z,1388
2022-11-14T16:00:36.643Z,1389
2022-11-14T16:05:54.860Z,1389
2022-11-14T16:11:13.706Z,1377
2022-11-14T16:16:32.146Z,1371
2022-11-14T16:21:50.101Z,1360
2022-11-14T16:27:08.584Z,1367
2022-11-14T16:32:27.105Z,1416
2022-11-14T16:37:45.559Z,1407
2022-11-14T16:43:04.376Z,1401
2022-11-14T16:48:23.108Z,1393
2022-11-14T16:53:41.605Z,1404
2022-11-14T16:59:00.351Z,1394
2022-11-14T17:04:19.146Z,1399
2022-11-14T17:09:37.892Z,1395
2022-11-14T17:14:56.407Z,1395
2022-11-14T17:20:14.610Z,1397
2022-11-14T17:25:33.081Z,1399
2022-11-14T17:30:51.621Z,1406
2022-11-14T17:36:09.806Z,1408
2022-11-14T17:41:28.285Z,1414
2022-11-14T17:46:46.565Z,1421
2022-11-14T17:52:05.011Z,1419
2022-11-14T17:57:23.543Z,1417
2022-11-14T18:02:41.784Z,1418
2022-11-14T18:08:00.522Z,1421
2022-11-14T18:13:18.748Z,1420
2022-11-14T18:18:36.967Z,1424
2022-11-14T18:23:55.459Z,1434
2022-11-14T18:29:13.951Z,1419
2022-11-14T18:34:32.165Z,1420
2022-11-14T18:39:50.666Z,1439
2022-11-14T18:45:09.414Z,1470
2022-11-14T18:50:27.633Z,1475
2022-11-14T18:55:46.346Z,1477
2022-11-14T19:01:04.903Z,1567
2022-11-14T19:06:23.481Z,1510
2022-11-14T19:11:41.668Z,1508
2022-11-14T19:17:00.416Z,1526
2022-11-14T19:22:18.919Z,1535
2022-11-14T19:27:37.354Z,1543
2022-11-14T19:32:56.098Z,1554
2022-11-14T19:38:14.326Z,1573
2022-11-14T19:43:33.188Z,1587
2022-11-14T19:48:52.063Z,1589
2022-11-14T19:54:10.857Z,1586
2022-11-14T19:59:29.358Z,1586
2022-11-14T20:04:48.111Z,1592
2022-11-14T20:10:06.584Z,1599
2022-11-14T20:15:24.528Z,1589
2022-11-14T20:20:43.056Z,1597
2022-11-14T20:26:01.840Z,1603
2022-11-14T20:31:28.497Z,1618
2022-11-14T20:37:09.694Z,1622
2022-11-14T20:42:30.305Z,1639
2022-11-14T20:47:48.786Z,1658
2022-11-14T20:53:07.276Z,1671
2022-11-14T20:58:27.795Z,1707
2022-11-14T21:03:47.312Z,1723
2022-11-14T21:09:05.500Z,1731
2022-11-14T21:14:23.727Z,1751
2022-11-14T21:19:42.480Z,1761
2022-11-14T21:25:01.244Z,1796
2022-11-14T21:30:20.017Z,1850
2022-11-14T21:35:38.514Z,1860
2022-11-14T21:40:57.241Z,1911
2022-11-14T21:46:15.497Z,1951
2022-11-14T21:51:33.978Z,1958
2022-11-14T21:56:52.161Z,1949
2022-11-14T22:02:10.776Z,1937
2022-11-14T22:07:29.718Z,1941
2022-11-14T22:12:48.440Z,1936
2022-11-14T22:18:07.247Z,1937
2022-11-14T22:23:25.720Z,1947
2022-11-14T22:28:43.931Z,1949
2022-11-14T22:34:02.436Z,1951
2022-11-14T22:39:20.591Z,1947
2022-11-14T22:44:39.361Z,1953
2022-11-14T22:49:58.148Z,1955
2022-11-14T22:55:18.135Z,1954
2022-11-14T23:00:36.871Z,1957
2022-11-14T23:05:55.440Z,1961
2022-11-14T23:11:14.187Z,1954
2022-11-14T23:16:32.722Z,1959
2022-11-14T23:21:51.510Z,1957
2022-11-14T23:27:10.000Z,1962
2022-11-14T23:32:12.597Z,1963
2022-11-14T23:37:31.382Z,1969
2022-11-14T23:42:50.147Z,1969
2022-11-14T23:48:08.385Z,2038
2022-11-14T23:53:27.159Z,2006
2022-11-14T23:58:46.183Z,2005
